Time;durP1;ratioP1;P1;durP2;ratioP2;P2;SDS_P1;SDS_P2;PMS_P1;PMS_P2;Temp;Humidity;BMP_temperature;BMP_pressure;BME280_temperature;BME280_humidity;BME280_pressure;Samples;Min_cycle;Max_cycle;Signal;HPM_P1;HPM_P2
2023/06/28 00:01:01;;;;;;;2.90;1.80;;;16.90;99.90;;;;;;5081471;28;20434;-69
2023/06/28 00:03:27;;;;;;;1.93;1.73;;;16.90;99.90;;;;;;5081860;28;20177;-69
2023/06/28 00:05:53;;;;;;;4.00;2.17;;;16.90;99.90;;;;;;5080565;28;20413;-68
2023/06/28 00:08:19;;;;;;;3.07;2.03;;;16.80;99.90;;;;;;5081007;28;20412;-70
2023/06/28 00:10:45;;;;;;;3.20;1.80;;;16.80;99.90;;;;;;5086527;28;20258;-68
2023/06/28 00:13:11;;;;;;;3.77;2.50;;;16.70;99.90;;;;;;5069409;28;20191;-68
2023/06/28 00:15:36;;;;;;;2.27;1.70;;;16.70;99.90;;;;;;5066775;28;20412;-68
2023/06/28 00:18:02;;;;;;;3.40;2.10;;;16.60;99.90;;;;;;5068041;28;20256;-68
2023/06/28 00:20:29;;;;;;;4.57;2.00;;;16.60;99.90;;;;;;5068012;28;20197;-69
2023/06/28 00:22:55;;;;;;;2.70;1.73;;;16.60;99.90;;;;;;5067640;28;20411;-69
2023/06/28 00:25:20;;;;;;;3.43;1.80;;;16.60;99.90;;;;;;5067859;28;20917;-69
2023/06/28 00:27:46;;;;;;;4.23;2.00;;;16.50;99.90;;;;;;5067765;28;20995;-70
2023/06/28 00:30:13;;;;;;;1.93;1.83;;;16.50;99.90;;;;;;5104660;28;20214;-69
2023/06/28 00:32:38;;;;;;;2.63;1.90;;;16.50;99.90;;;;;;5108019;28;20549;-68
2023/06/28 00:35:05;;;;;;;1.93;1.70;;;16.40;99.90;;;;;;5108475;28;20402;-68
2023/06/28 00:37:31;;;;;;;3.93;1.80;;;16.40;99.90;;;;;;5108323;28;20168;-67
2023/06/28 00:39:57;;;;;;;2.80;1.83;;;16.40;99.90;;;;;;5108468;28;20421;-68
2023/06/28 00:42:23;;;;;;;5.93;2.13;;;16.40;99.90;;;;;;5107895;28;20409;-68
2023/06/28 00:44:48;;;;;;;2.73;1.87;;;16.30;99.90;;;;;;5108242;28;20224;-70
2023/06/28 00:47:15;;;;;;;3.50;2.33;;;16.30;99.90;;;;;;5108332;28;20179;-69
2023/06/28 00:49:42;;;;;;;3.57;2.00;;;16.20;99.90;;;;;;5108229;28;20215;-69
2023/06/28 00:52:09;;;;;;;2.90;2.27;;;16.20;99.90;;;;;;5108005;28;20409;-69
2023/06/28 00:54:36;;;;;;;3.50;2.33;;;16.20;99.90;;;;;;5107847;28;20926;-69
2023/06/28 00:57:03;;;;;;;2.10;1.90;;;16.20;99.90;;;;;;5107394;28;20440;-69
2023/06/28 00:59:30;;;;;;;3.40;1.80;;;16.20;99.90;;;;;;5108347;28;20527;-69
2023/06/28 01:01:55;;;;;;;2.30;2.10;;;16.20;99.90;;;;;;5103365;28;20817;-70
2023/06/28 01:04:21;;;;;;;2.27;2.07;;;16.20;99.90;;;;;;5087685;28;20434;-70
2023/06/28 01:06:53;;;;;;;5.53;2.10;;;16.20;99.90;;;;;;5088785;28;20200;-69
2023/06/28 01:09:24;;;;;;;6.37;2.37;;;16.20;99.90;;;;;;5091297;28;20208;-69
2023/06/28 01:11:51;;;;;;;4.60;2.20;;;16.20;99.90;;;;;;5090902;28;20438;-69
2023/06/28 01:14:21;;;;;;;3.60;2.40;;;16.20;99.90;;;;;;5081994;28;20423;-68
2023/06/28 01:16:49;;;;;;;3.83;2.43;;;16.20;99.90;;;;;;5084441;28;20431;-69
2023/06/28 01:19:16;;;;;;;3.10;2.10;;;16.20;99.90;;;;;;5080180;28;20445;-69
2023/06/28 01:21:48;;;;;;;2.97;2.50;;;16.20;99.90;;;;;;5080937;28;20430;-69
2023/06/28 01:24:14;;;;;;;3.67;2.43;;;16.10;99.90;;;;;;5083032;28;20423;-68
2023/06/28 01:26:40;;;;;;;3.00;2.07;;;16.10;99.90;;;;;;5088414;28;20418;-69
2023/06/28 01:29:07;;;;;;;2.47;1.93;;;16.00;99.90;;;;;;5086345;28;20562;-69
2023/06/28 01:31:34;;;;;;;2.53;2.33;;;16.00;99.90;;;;;;5078583;28;20861;-69
2023/06/28 01:34:00;;;;;;;3.33;2.50;;;16.00;99.90;;;;;;5081098;28;20480;-69
2023/06/28 01:36:26;;;;;;;2.90;2.53;;;16.00;99.90;;;;;;5083895;28;20915;-69
2023/06/28 01:38:54;;;;;;;4.33;2.50;;;15.90;99.90;;;;;;5083660;28;20289;-68
2023/06/28 01:41:20;;;;;;;4.87;2.30;;;15.90;99.90;;;;;;5085980;28;20417;-68
2023/06/28 01:43:46;;;;;;;2.53;2.20;;;15.90;99.90;;;;;;5080654;28;20430;-68
2023/06/28 01:46:12;;;;;;;2.70;2.47;;;15.80;99.90;;;;;;5085302;28;20775;-69
2023/06/28 01:48:38;;;;;;;5.47;2.33;;;15.80;99.90;;;;;;5081896;28;20968;-68
2023/06/28 01:51:05;;;;;;;3.67;2.53;;;15.70;99.90;;;;;;5083862;28;20579;-68
2023/06/28 01:53:30;;;;;;;3.60;2.63;;;15.70;99.90;;;;;;5083742;28;20579;-68
2023/06/28 01:55:56;;;;;;;2.53;2.33;;;15.70;99.90;;;;;;5082944;28;20414;-68
2023/06/28 01:58:22;;;;;;;4.77;2.33;;;15.60;99.90;;;;;;5082008;28;20275;-69
2023/06/28 02:00:48;;;;;;;4.57;2.70;;;15.60;99.90;;;;;;5089066;28;20568;-70
2023/06/28 02:03:13;;;;;;;5.27;2.30;;;15.50;99.90;;;;;;5081165;28;20638;-69
2023/06/28 02:05:40;;;;;;;3.43;3.07;;;15.50;99.90;;;;;;5086920;28;20752;-69
2023/06/28 02:08:06;;;;;;;2.80;2.40;;;15.50;99.90;;;;;;5080739;28;20197;-69
2023/06/28 02:10:33;;;;;;;5.57;2.80;;;15.50;99.90;;;;;;5084310;28;20498;-68
2023/06/28 02:12:59;;;;;;;2.80;2.50;;;15.50;99.90;;;;;;5082913;28;20712;-68
2023/06/28 02:15:24;;;;;;;2.27;2.07;;;15.40;99.90;;;;;;5085856;28;20411;-68
2023/06/28 02:17:50;;;;;;;3.57;2.47;;;15.40;99.90;;;;;;5085530;28;20264;-69
2023/06/28 02:20:16;;;;;;;4.73;2.90;;;15.30;99.90;;;;;;5083024;28;20196;-67
2023/06/28 02:22:41;;;;;;;3.50;2.77;;;15.30;99.90;;;;;;5089685;28;20276;-68
2023/06/28 02:25:07;;;;;;;4.40;2.33;;;15.30;99.90;;;;;;5089946;28;20208;-69
2023/06/28 02:27:33;;;;;;;3.20;2.50;;;15.20;99.90;;;;;;5090004;28;20260;-68
2023/06/28 02:29:59;;;;;;;5.27;2.30;;;15.20;99.90;;;;;;5105325;28;20973;-69
2023/06/28 02:32:25;;;;;;;3.20;2.90;;;15.20;99.90;;;;;;5110294;28;20656;-69
2023/06/28 02:34:50;;;;;;;2.57;2.30;;;15.20;99.90;;;;;;5110424;28;20202;-69
2023/06/28 02:37:16;;;;;;;2.63;2.37;;;15.10;99.90;;;;;;5110393;28;21273;-68
2023/06/28 02:39:42;;;;;;;3.50;2.23;;;15.10;99.90;;;;;;5110339;28;20245;-68
2023/06/28 02:42:08;;;;;;;2.87;2.43;;;15.10;99.90;;;;;;5110043;28;20517;-69
2023/06/28 02:44:36;;;;;;;3.40;2.30;;;15.10;99.90;;;;;;5109944;28;20201;-69
2023/06/28 02:47:02;;;;;;;2.83;2.60;;;15.10;99.90;;;;;;5110242;28;20548;-68
2023/06/28 02:49:28;;;;;;;5.70;3.00;;;15.10;99.90;;;;;;5109845;28;20519;-68
2023/06/28 02:51:53;;;;;;;2.30;2.10;;;15.20;99.90;;;;;;5109851;28;20180;-68
2023/06/28 02:54:19;;;;;;;4.10;2.80;;;15.20;99.90;;;;;;5109630;28;20211;-70
2023/06/28 02:56:45;;;;;;;2.80;2.43;;;15.20;99.90;;;;;;5109342;28;20589;-68
2023/06/28 02:59:10;;;;;;;3.00;2.63;;;15.10;99.90;;;;;;5108338;28;20194;-69
2023/06/28 03:01:36;;;;;;;4.20;2.17;;;15.10;99.90;;;;;;5107557;28;20195;-70
2023/06/28 03:04:02;;;;;;;5.87;2.77;;;15.10;99.90;;;;;;5089137;28;20279;-68
2023/06/28 03:06:28;;;;;;;2.30;2.10;;;15.10;99.90;;;;;;5087863;28;20920;-69
2023/06/28 03:08:53;;;;;;;5.10;2.53;;;15.10;99.90;;;;;;5089192;28;20204;-69
2023/06/28 03:11:19;;;;;;;3.83;2.50;;;15.10;99.90;;;;;;5089002;28;20188;-68
2023/06/28 03:13:45;;;;;;;4.70;2.50;;;15.00;99.90;;;;;;5088878;28;20169;-69
2023/06/28 03:16:10;;;;;;;5.80;2.97;;;15.00;99.90;;;;;;5089189;28;20164;-69
2023/06/28 03:18:36;;;;;;;4.70;3.00;;;15.00;99.90;;;;;;5089154;28;20184;-69
2023/06/28 03:21:02;;;;;;;5.20;2.77;;;15.00;99.90;;;;;;5088900;28;20746;-68
2023/06/28 03:23:28;;;;;;;4.27;2.90;;;15.00;99.90;;;;;;5088381;28;20161;-68
2023/06/28 03:25:54;;;;;;;3.10;2.67;;;15.00;99.90;;;;;;5088803;28;20413;-69
2023/06/28 03:28:20;;;;;;;3.53;2.63;;;15.00;99.90;;;;;;5091378;28;20605;-68
2023/06/28 03:30:45;;;;;;;2.67;2.47;;;15.00;99.90;;;;;;5109017;28;20214;-68
2023/06/28 03:33:11;;;;;;;4.33;2.70;;;15.00;99.90;;;;;;5108546;28;20211;-68
2023/06/28 03:35:37;;;;;;;2.93;2.63;;;15.00;99.90;;;;;;5109038;28;20199;-69
2023/06/28 03:38:02;;;;;;;6.03;2.80;;;15.00;99.90;;;;;;5109006;28;20168;-69
2023/06/28 03:40:29;;;;;;;6.53;3.10;;;15.00;99.90;;;;;;5108963;28;20204;-68
2023/06/28 03:42:55;;;;;;;5.50;3.47;;;15.00;99.90;;;;;;5108633;28;20663;-69
2023/06/28 03:45:20;;;;;;;5.57;3.30;;;15.00;99.90;;;;;;5108988;28;20441;-69
2023/06/28 03:47:47;;;;;;;3.90;3.23;;;15.00;99.90;;;;;;5108941;28;20440;-69
2023/06/28 03:50:14;;;;;;;4.90;2.80;;;15.10;99.90;;;;;;5108766;28;20196;-68
2023/06/28 03:52:40;;;;;;;3.53;2.67;;;15.20;99.90;;;;;;5107168;28;20910;-68
2023/06/28 03:55:06;;;;;;;5.10;3.30;;;15.30;99.90;;;;;;5107290;28;20990;-69
2023/06/28 03:57:32;;;;;;;5.90;2.83;;;15.30;99.90;;;;;;5107348;28;20409;-69
2023/06/28 03:59:58;;;;;;;4.63;2.63;;;15.30;99.90;;;;;;5108873;28;20567;-68
2023/06/28 04:02:24;;;;;;;5.80;3.67;;;15.30;99.90;;;;;;5100118;28;20903;-68
2023/06/28 04:04:49;;;;;;;3.07;2.77;;;15.20;99.90;;;;;;5088066;28;20836;-69
2023/06/28 04:07:15;;;;;;;3.77;3.20;;;15.20;99.90;;;;;;5088409;28;20180;-68
2023/06/28 04:09:42;;;;;;;4.83;3.37;;;15.30;99.90;;;;;;5088159;28;20341;-68
2023/06/28 04:12:08;;;;;;;3.40;2.97;;;15.30;99.90;;;;;;5086937;28;20659;-69
2023/06/28 04:14:34;;;;;;;5.83;3.10;;;15.40;99.90;;;;;;5088317;28;20438;-69
2023/06/28 04:17:00;;;;;;;5.00;3.00;;;15.40;99.90;;;;;;5088299;28;20410;-69
2023/06/28 04:19:25;;;;;;;3.60;3.13;;;15.40;99.90;;;;;;5088231;28;20335;-68
2023/06/28 04:21:51;;;;;;;4.80;2.70;;;15.40;99.90;;;;;;5087750;28;20237;-69
2023/06/28 04:24:17;;;;;;;3.13;2.70;;;15.60;99.90;;;;;;5088211;28;20207;-69
2023/06/28 04:26:42;;;;;;;3.30;2.57;;;15.60;99.90;;;;;;5088226;28;20176;-68
2023/06/28 04:29:08;;;;;;;3.63;2.70;;;15.60;99.90;;;;;;5097424;28;20212;-69
2023/06/28 04:31:34;;;;;;;3.50;3.20;;;15.70;99.90;;;;;;5106944;28;20575;-68
2023/06/28 04:34:00;;;;;;;4.80;3.10;;;15.80;99.90;;;;;;5108391;28;20168;-68
2023/06/28 04:36:26;;;;;;;4.47;2.90;;;15.80;99.90;;;;;;5107267;28;20197;-68
2023/06/28 04:38:55;;;;;;;4.40;3.30;;;15.80;99.90;;;;;;5108508;28;20492;-68
2023/06/28 04:41:25;;;;;;;4.53;2.70;;;16.00;99.90;;;;;;5108325;28;20410;-69
2023/06/28 04:43:55;;;;;;;3.80;2.67;;;15.90;99.90;;;;;;5112081;27;20478;-68
2023/06/28 04:46:26;;;;;;;4.37;2.77;;;16.00;99.90;;;;;;5112235;28;20420;-69
2023/06/28 04:48:53;;;;;;;3.83;3.00;;;16.00;99.90;;;;;;5112215;28;20801;-68
2023/06/28 04:51:19;;;;;;;3.43;3.00;;;16.00;99.90;;;;;;5103813;28;20976;-68
2023/06/28 04:53:46;;;;;;;4.33;2.83;;;16.00;99.90;;;;;;5087210;28;20870;-69
2023/06/28 04:56:14;;;;;;;8.33;2.87;;;16.00;99.90;;;;;;5091835;28;20410;-68
2023/06/28 04:58:40;;;;;;;3.13;2.60;;;16.10;99.90;;;;;;5090143;28;20407;-69
2023/06/28 05:01:07;;;;;;;3.90;2.80;;;16.10;99.90;;;;;;5089184;28;20442;-69
2023/06/28 05:03:34;;;;;;;4.30;2.73;;;16.20;99.90;;;;;;5086160;28;20517;-69
2023/06/28 05:06:02;;;;;;;5.00;2.50;;;16.20;99.90;;;;;;5091748;28;20414;-69
2023/06/28 05:08:28;;;;;;;6.13;3.30;;;16.30;99.90;;;;;;5091669;28;20927;-69
2023/06/28 05:10:53;;;;;;;4.93;3.33;;;16.40;99.90;;;;;;5091239;28;20454;-69
2023/06/28 05:13:21;;;;;;;4.83;3.00;;;16.50;99.90;;;;;;5090914;28;20177;-68
2023/06/28 05:15:46;;;;;;;8.53;2.90;;;16.50;99.90;;;;;;5091370;28;20501;-68
2023/06/28 05:18:12;;;;;;;4.07;3.07;;;16.60;99.90;;;;;;5091512;28;20494;-68
2023/06/28 05:20:38;;;;;;;6.10;3.23;;;16.60;99.90;;;;;;5086104;28;20201;-68
2023/06/28 05:23:17;;;;;;;5.07;3.50;;;16.70;99.90;;;;;;5077041;28;20189;-69
2023/06/28 05:25:44;;;;;;;8.70;3.53;;;16.80;99.90;;;;;;5078711;28;20185;-68
2023/06/28 05:28:14;;;;;;;6.77;3.70;;;16.90;99.90;;;;;;5073468;28;20968;-69
2023/06/28 05:30:41;;;;;;;4.53;3.10;;;17.00;99.90;;;;;;5111431;28;20502;-68
2023/06/28 05:33:08;;;;;;;5.53;3.27;;;17.10;99.90;;;;;;5110863;28;20414;-69
2023/06/28 05:35:34;;;;;;;5.93;3.50;;;17.20;99.90;;;;;;5111413;28;20402;-68
2023/06/28 05:38:01;;;;;;;3.27;2.60;;;17.20;99.90;;;;;;5111276;28;20441;-69
2023/06/28 05:40:27;;;;;;;3.00;2.60;;;17.30;99.90;;;;;;5111189;28;20498;-68
2023/06/28 05:42:53;;;;;;;4.10;3.40;;;17.40;99.90;;;;;;5110890;28;20410;-68
2023/06/28 05:45:23;;;;;;;4.33;3.07;;;17.50;99.90;;;;;;5111086;28;20721;-68
2023/06/28 05:47:49;;;;;;;4.63;3.00;;;17.60;99.90;;;;;;5111309;28;20459;-69
2023/06/28 05:50:16;;;;;;;4.20;2.80;;;17.50;99.90;;;;;;5108791;28;21008;-68
2023/06/28 05:52:45;;;;;;;3.57;2.40;;;17.50;99.90;;;;;;5110460;28;20406;-69
2023/06/28 05:55:11;;;;;;;4.83;2.60;;;17.50;99.90;;;;;;5110719;28;20543;-68
2023/06/28 05:57:37;;;;;;;2.93;2.47;;;17.50;99.90;;;;;;5109848;28;20872;-68
2023/06/28 06:00:07;;;;;;;7.13;3.67;;;17.40;99.90;;;;;;5111051;28;20983;-68
2023/06/28 06:02:33;;;;;;;6.00;2.77;;;17.40;99.90;;;;;;5100681;28;20418;-69
2023/06/28 06:05:01;;;;;;;2.70;2.47;;;17.40;99.90;;;;;;5090239;28;20805;-68
2023/06/28 06:07:27;;;;;;;6.43;3.30;;;17.40;99.90;;;;;;5090486;28;20427;-69
2023/06/28 06:09:56;;;;;;;6.03;3.27;;;17.40;99.90;;;;;;5086732;28;20997;-69
2023/06/28 06:12:22;;;;;;;3.87;2.93;;;17.40;99.90;;;;;;5088354;28;20406;-69
2023/06/28 06:14:51;;;;;;;3.63;2.80;;;17.30;99.90;;;;;;5090138;28;20418;-69
2023/06/28 06:17:17;;;;;;;5.37;3.20;;;17.30;99.90;;;;;;5089707;28;20520;-69
2023/06/28 06:19:43;;;;;;;5.07;2.30;;;17.30;99.90;;;;;;5081640;28;20501;-68
2023/06/28 06:22:08;;;;;;;5.27;2.50;;;17.30;99.90;;;;;;5080056;28;20467;-69
2023/06/28 06:24:34;;;;;;;5.00;2.67;;;17.30;99.90;;;;;;5088765;28;20190;-66
2023/06/28 06:27:00;;;;;;;4.93;2.37;;;17.30;99.90;;;;;;5089524;28;20176;-68
2023/06/28 06:29:26;;;;;;;4.20;2.77;;;17.30;99.90;;;;;;5089157;28;20212;-67
2023/06/28 06:31:51;;;;;;;3.70;2.07;;;17.30;99.90;;;;;;5089028;28;20217;-68
2023/06/28 06:34:17;;;;;;;3.60;2.40;;;17.30;99.90;;;;;;5086644;28;20649;-67
2023/06/28 06:36:43;;;;;;;2.40;1.77;;;17.20;99.90;;;;;;5081411;28;20228;-68
2023/06/28 06:39:09;;;;;;;4.17;2.10;;;17.20;99.90;;;;;;5089042;28;20206;-68
2023/06/28 06:41:35;;;;;;;3.83;2.00;;;17.20;99.90;;;;;;5084934;28;20410;-67
2023/06/28 06:44:00;;;;;;;2.50;1.90;;;17.20;99.90;;;;;;5087847;28;20430;-67
2023/06/28 06:46:26;;;;;;;4.97;2.40;;;17.20;99.90;;;;;;5081153;28;20810;-67
2023/06/28 06:48:51;;;;;;;4.50;1.87;;;17.20;99.90;;;;;;5087789;28;20263;-67
2023/06/28 06:51:17;;;;;;;2.80;1.77;;;17.20;99.90;;;;;;5088674;28;20674;-67
2023/06/28 06:53:43;;;;;;;4.50;2.47;;;17.20;99.90;;;;;;5089075;28;20175;-67
2023/06/28 06:56:09;;;;;;;5.60;2.10;;;17.30;99.90;;;;;;5089437;28;20230;-67
2023/06/28 06:58:35;;;;;;;2.90;2.23;;;17.30;99.90;;;;;;5088768;28;20260;-67
2023/06/28 07:01:02;;;;;;;3.63;2.03;;;17.30;99.90;;;;;;5089401;28;20204;-67
2023/06/28 07:03:28;;;;;;;3.07;2.03;;;17.30;99.90;;;;;;5088281;28;20467;-66
2023/06/28 07:05:54;;;;;;;4.53;2.30;;;17.40;99.90;;;;;;5088796;28;20410;-68
2023/06/28 07:08:19;;;;;;;3.60;2.00;;;17.40;99.90;;;;;;5088935;28;20419;-67
2023/06/28 07:10:45;;;;;;;3.63;1.73;;;17.40;99.90;;;;;;5089222;28;20299;-68
2023/06/28 07:13:11;;;;;;;4.03;2.43;;;17.50;99.90;;;;;;5088357;28;20200;-68
2023/06/28 07:15:36;;;;;;;4.50;2.27;;;17.60;99.90;;;;;;5089128;28;20165;-68
2023/06/28 07:18:03;;;;;;;2.57;1.90;;;17.60;99.90;;;;;;5089097;28;20510;-68
2023/06/28 07:20:29;;;;;;;5.30;2.60;;;17.80;99.90;;;;;;5088907;28;20203;-68
2023/06/28 07:22:54;;;;;;;4.90;1.90;;;17.80;99.90;;;;;;5074519;28;20431;-68
2023/06/28 07:25:20;;;;;;;2.50;2.20;;;17.90;99.90;;;;;;5086088;28;20267;-67
2023/06/28 07:27:46;;;;;;;2.83;2.07;;;17.90;99.90;;;;;;5089073;28;20199;-68
2023/06/28 07:30:12;;;;;;;3.13;2.47;;;17.90;99.90;;;;;;5106847;28;20579;-67
2023/06/28 07:32:37;;;;;;;3.70;2.40;;;18.00;99.90;;;;;;5108589;28;20224;-67
2023/06/28 07:35:03;;;;;;;2.50;2.30;;;18.00;99.90;;;;;;5108850;28;20438;-67
2023/06/28 07:37:30;;;;;;;6.07;2.70;;;18.00;99.90;;;;;;5107773;28;20242;-68
2023/06/28 07:43:18;;;;;;;5.13;2.43;;;17.80;99.90;;;;;;5094876;28;20414;-68
2023/06/28 07:45:44;;;;;;;2.77;2.43;;;17.80;99.90;;;;;;5087871;28;20418;-68
2023/06/28 07:48:09;;;;;;;3.57;2.40;;;17.90;99.90;;;;;;5088572;28;20429;-68
2023/06/28 07:50:36;;;;;;;4.23;2.37;;;17.90;99.90;;;;;;5088790;28;20237;-67
2023/06/28 07:53:02;;;;;;;5.77;3.40;;;17.90;99.90;;;;;;5087940;28;20172;-68
2023/06/28 07:55:28;;;;;;;3.80;2.53;;;18.00;99.90;;;;;;5088585;28;20414;-67
2023/06/28 07:57:55;;;;;;;3.80;2.60;;;18.00;99.90;;;;;;5087658;28;20757;-68
2023/06/28 08:00:21;;;;;;;3.57;2.50;;;18.00;99.90;;;;;;5088775;28;20441;-68
2023/06/28 08:02:46;;;;;;;4.00;2.50;;;18.00;99.90;;;;;;5087974;28;20826;-67
2023/06/28 08:05:12;;;;;;;3.70;2.60;;;18.10;99.90;;;;;;5088331;28;20204;-68
2023/06/28 08:07:37;;;;;;;3.30;2.70;;;18.10;99.90;;;;;;5088577;28;20188;-68
2023/06/28 08:10:03;;;;;;;3.83;2.80;;;18.20;99.90;;;;;;5088765;28;20611;-68
2023/06/28 08:12:29;;;;;;;4.40;2.53;;;18.20;99.90;;;;;;5087891;28;20180;-68
2023/06/28 08:14:55;;;;;;;4.53;2.63;;;18.30;99.90;;;;;;5088122;28;20456;-68
2023/06/28 08:17:21;;;;;;;7.20;2.77;;;18.30;99.90;;;;;;5090687;28;20175;-68
2023/06/28 08:19:46;;;;;;;3.40;2.60;;;18.30;99.90;;;;;;5092582;28;20226;-68
2023/06/28 08:22:12;;;;;;;8.97;3.37;;;18.40;99.90;;;;;;5092076;28;20790;-68
2023/06/28 08:24:39;;;;;;;5.33;2.40;;;18.40;99.90;;;;;;5092322;28;20183;-68
2023/06/28 08:27:06;;;;;;;4.13;2.07;;;18.50;99.90;;;;;;5092256;28;20429;-68
2023/06/28 08:29:31;;;;;;;4.00;2.00;;;18.50;99.90;;;;;;5092274;28;20503;-68
2023/06/28 08:31:57;;;;;;;3.67;2.23;;;18.40;99.90;;;;;;5092307;28;20422;-68
2023/06/28 08:34:23;;;;;;;2.73;2.17;;;18.40;99.90;;;;;;5091661;28;20177;-68
2023/06/28 08:36:48;;;;;;;4.33;2.27;;;18.40;99.90;;;;;;5092535;28;20180;-68
2023/06/28 08:39:14;;;;;;;3.70;2.17;;;18.40;99.90;;;;;;5092329;28;20204;-68
2023/06/28 08:41:41;;;;;;;4.90;2.33;;;18.40;99.90;;;;;;5092326;28;20573;-68
2023/06/28 08:44:12;;;;;;;4.87;1.90;;;18.50;99.90;;;;;;5089364;28;20573;-68
2023/06/28 08:46:40;;;;;;;2.80;1.73;;;18.50;99.90;;;;;;5092429;28;20563;-68
2023/06/28 08:49:06;;;;;;;2.67;1.67;;;18.60;99.90;;;;;;5092056;28;20461;-68
2023/06/28 08:51:33;;;;;;;3.53;2.50;;;18.60;99.90;;;;;;5092215;28;20410;-67
2023/06/28 08:53:59;;;;;;;6.50;2.37;;;18.60;99.90;;;;;;5090529;28;20919;-69
2023/06/28 08:56:27;;;;;;;3.87;2.20;;;18.60;99.90;;;;;;5092134;28;20429;-68
2023/06/28 08:58:54;;;;;;;3.90;2.10;;;18.70;99.90;;;;;;5090598;28;20425;-68
2023/06/28 09:01:23;;;;;;;5.20;1.90;;;18.70;99.90;;;;;;5091972;28;20422;-68
2023/06/28 09:03:49;;;;;;;3.80;2.50;;;18.70;99.90;;;;;;5090809;28;20499;-68
2023/06/28 09:06:15;;;;;;;2.77;2.43;;;18.70;99.90;;;;;;5090785;28;20479;-68
2023/06/28 09:08:43;;;;;;;4.67;2.60;;;18.80;99.90;;;;;;5091904;28;20417;-68
2023/06/28 09:11:10;;;;;;;4.30;2.30;;;18.80;99.90;;;;;;5091821;28;20450;-68
2023/06/28 09:13:37;;;;;;;3.20;2.43;;;18.80;99.90;;;;;;5090746;28;20418;-69
2023/06/28 09:16:09;;;;;;;4.03;2.33;;;18.80;99.90;;;;;;5090561;28;20406;-68
2023/06/28 09:18:35;;;;;;;3.60;2.20;;;18.90;99.90;;;;;;5091596;28;20497;-68
2023/06/28 09:21:01;;;;;;;3.93;2.77;;;19.00;99.90;;;;;;5091540;28;20865;-68
2023/06/28 09:23:29;;;;;;;4.57;3.13;;;19.20;99.90;;;;;;5090697;28;20414;-67
2023/06/28 09:25:56;;;;;;;5.83;3.33;;;19.20;99.90;;;;;;5091699;28;20425;-67
2023/06/28 09:28:23;;;;;;;4.13;2.70;;;19.40;99.90;;;;;;5090676;28;20423;-68
2023/06/28 09:30:53;;;;;;;3.83;3.00;;;19.60;99.90;;;;;;5091521;28;20479;-67
2023/06/28 09:33:19;;;;;;;5.70;2.60;;;19.70;99.90;;;;;;5090716;28;20436;-68
2023/06/28 09:35:45;;;;;;;6.00;3.33;;;19.90;99.90;;;;;;5091663;28;20419;-68
2023/06/28 09:38:11;;;;;;;7.33;3.60;;;19.90;99.90;;;;;;5091424;28;20441;-67
2023/06/28 09:40:37;;;;;;;5.13;3.17;;;19.90;99.90;;;;;;5091415;28;20188;-68
2023/06/28 09:43:03;;;;;;;5.70;2.60;;;19.90;99.90;;;;;;5090287;28;20179;-68
2023/06/28 09:45:31;;;;;;;4.73;2.83;;;19.80;99.90;;;;;;5091568;28;20180;-68
2023/06/28 09:48:02;;;;;;;3.97;3.10;;;19.80;99.90;;;;;;5091206;28;20476;-67
2023/06/28 09:50:40;;;;;;;4.63;2.80;;;19.70;99.90;;;;;;5091259;28;20524;-68
2023/06/28 09:53:08;;;;;;;4.40;2.70;;;19.70;99.90;;;;;;5090198;28;20501;-67
2023/06/28 09:55:36;;;;;;;4.37;2.60;;;19.60;99.90;;;;;;5091268;28;20402;-67
2023/06/28 09:58:02;;;;;;;5.00;3.23;;;19.60;99.90;;;;;;5089159;28;20411;-68
2023/06/28 10:00:31;;;;;;;4.20;3.20;;;19.50;99.90;;;;;;5090974;28;20488;-68
2023/06/28 10:03:01;;;;;;;5.10;3.33;;;19.50;99.90;;;;;;5090187;28;20526;-68
2023/06/28 10:05:27;;;;;;;7.83;2.90;;;19.50;99.90;;;;;;5090865;28;20538;-68
2023/06/28 10:07:54;;;;;;;7.07;3.47;;;19.50;99.90;;;;;;5091136;28;20406;-68
2023/06/28 10:10:20;;;;;;;8.43;2.87;;;19.70;99.90;;;;;;5090683;28;20549;-68
2023/06/28 10:12:46;;;;;;;6.40;3.03;;;19.70;99.90;;;;;;5090174;28;20506;-68
2023/06/28 10:15:20;;;;;;;6.07;3.40;;;19.80;99.90;;;;;;5090453;28;20406;-68
2023/06/28 10:17:45;;;;;;;3.87;3.27;;;19.80;99.90;;;;;;5090819;28;20475;-68
2023/06/28 10:20:11;;;;;;;4.90;3.13;;;19.90;99.90;;;;;;5090528;28;20505;-67
2023/06/28 10:22:39;;;;;;;4.63;4.03;;;20.00;99.90;;;;;;5089944;28;20176;-68
2023/06/28 10:25:05;;;;;;;6.20;3.70;;;20.00;99.90;;;;;;5090023;28;20184;-68
2023/06/28 10:27:33;;;;;;;6.77;4.43;;;19.90;99.90;;;;;;5090466;28;20422;-68
2023/06/28 10:30:00;;;;;;;6.07;4.33;;;19.90;99.90;;;;;;5090194;28;20454;-68
2023/06/28 10:32:27;;;;;;;7.47;4.80;;;19.90;99.90;;;;;;5089572;28;20411;-68
2023/06/28 10:34:55;;;;;;;6.40;4.10;;;19.80;99.90;;;;;;5089802;28;20475;-68
2023/06/28 10:37:21;;;;;;;6.53;3.70;;;19.70;99.90;;;;;;5078289;28;20426;-68
2023/06/28 10:39:51;;;;;;;7.10;3.40;;;19.80;99.90;;;;;;5079505;28;20486;-68
2023/06/28 10:42:18;;;;;;;9.13;3.30;;;19.80;99.90;;;;;;5077955;28;20875;-68
2023/06/28 10:44:55;;;;;;;3.60;2.93;;;19.80;99.90;;;;;;5080847;28;20459;-68
2023/06/28 10:47:21;;;;;;;9.50;3.30;;;19.70;99.90;;;;;;5085030;28;20426;-68
2023/06/28 10:50:19;;;;;;;8.20;3.33;;;19.80;99.90;;;;;;5084368;28;20462;-68
2023/06/28 10:52:56;;;;;;;4.83;3.23;;;19.80;99.90;;;;;;5080149;28;20199;-68
2023/06/28 10:55:33;;;;;;;4.00;3.20;;;19.80;99.90;;;;;;5077986;28;20879;-68
2023/06/28 10:58:10;;;;;;;5.83;3.33;;;19.80;99.90;;;;;;5078546;28;20406;-68
2023/06/28 11:00:45;;;;;;;3.83;2.87;;;19.70;99.90;;;;;;5086304;28;20441;-68
2023/06/28 11:03:10;;;;;;;4.60;2.77;;;19.70;99.90;;;;;;5078662;28;20450;-68
2023/06/28 11:05:45;;;;;;;6.17;3.30;;;19.70;99.90;;;;;;5085486;28;20883;-68
2023/06/28 11:08:12;;;;;;;6.50;3.50;;;19.60;99.90;;;;;;5078294;28;20180;-68
2023/06/28 11:10:53;;;;;;;5.80;3.40;;;19.60;99.90;;;;;;5076964;28;20474;-68
2023/06/28 11:13:40;;;;;;;5.20;3.37;;;19.50;99.90;;;;;;5082799;28;20406;-68
2023/06/28 11:16:22;;;;;;;6.30;2.80;;;19.50;99.90;;;;;;5080949;28;20407;-68
2023/06/28 11:18:50;;;;;;;5.30;3.27;;;19.50;99.90;;;;;;5086774;28;20418;-68
2023/06/28 11:21:21;;;;;;;6.43;3.27;;;19.60;99.90;;;;;;5077452;28;20550;-68
2023/06/28 11:23:47;;;;;;;8.10;3.53;;;19.50;99.90;;;;;;5083971;28;20938;-68
2023/06/28 11:26:30;;;;;;;6.20;3.97;;;19.40;99.90;;;;;;5082785;28;20428;-68
2023/06/28 11:28:56;;;;;;;7.37;3.73;;;19.40;99.90;;;;;;5085759;28;20522;-68
2023/06/28 11:31:42;;;;;;;4.13;3.10;;;19.40;99.90;;;;;;5082751;28;20560;-68
2023/06/28 11:34:09;;;;;;;5.97;3.50;;;19.40;99.90;;;;;;5076996;28;20201;-68
2023/06/28 11:36:36;;;;;;;5.50;3.00;;;19.40;99.90;;;;;;5082679;28;20828;-68
2023/06/28 11:39:03;;;;;;;7.93;4.10;;;19.30;99.90;;;;;;5085213;28;20418;-68
2023/06/28 11:41:34;;;;;;;4.20;3.30;;;19.40;99.90;;;;;;5080434;28;20423;-67
2023/06/28 11:44:04;;;;;;;6.97;3.77;;;19.40;99.90;;;;;;5083952;28;20423;-67
2023/06/28 11:46:33;;;;;;;4.57;3.33;;;19.50;99.90;;;;;;5080738;28;20428;-68
2023/06/28 11:49:02;;;;;;;8.87;3.83;;;19.50;99.90;;;;;;5082361;28;20419;-67
2023/06/28 11:51:28;;;;;;;6.20;3.80;;;19.60;99.90;;;;;;5079784;28;20434;-67
2023/06/28 11:53:56;;;;;;;4.97;3.77;;;19.70;99.90;;;;;;5081754;28;20418;-67
2023/06/28 11:56:37;;;;;;;8.33;3.63;;;19.70;99.90;;;;;;5083569;28;20414;-68
2023/06/28 11:59:19;;;;;;;6.13;2.90;;;19.80;99.90;;;;;;5081026;28;20940;-68
2023/06/28 12:01:47;;;;;;;6.00;3.90;;;19.90;99.90;;;;;;5082599;28;20518;-68
2023/06/28 12:04:13;;;;;;;5.20;3.57;;;20.00;99.90;;;;;;5078127;28;20455;-68
2023/06/28 12:06:41;;;;;;;5.13;3.97;;;20.10;99.90;;;;;;5086260;28;20516;-68
2023/06/28 12:09:20;;;;;;;10.50;3.40;;;20.10;99.90;;;;;;5083111;28;20176;-68
2023/06/28 12:11:58;;;;;;;6.70;3.90;;;20.10;99.90;;;;;;5083591;28;20422;-68
2023/06/28 12:14:27;;;;;;;6.23;3.90;;;20.20;99.90;;;;;;5085640;28;20414;-68
2023/06/28 12:16:54;;;;;;;6.70;3.23;;;20.30;99.90;;;;;;5083137;28;20495;-68
2023/06/28 12:19:29;;;;;;;7.93;3.73;;;20.40;99.90;;;;;;5080066;28;20494;-68
2023/06/28 12:21:56;;;;;;;5.63;3.30;;;20.40;99.90;;;;;;5074200;28;20414;-68
2023/06/28 12:24:26;;;;;;;5.10;3.60;;;20.50;99.90;;;;;;5078096;28;20414;-68
2023/06/28 12:26:59;;;;;;;6.73;3.70;;;20.50;99.90;;;;;;5078133;28;20468;-68
2023/06/28 12:29:27;;;;;;;6.60;4.10;;;20.60;99.90;;;;;;5083794;28;20466;-68
2023/06/28 12:31:54;;;;;;;6.03;3.80;;;20.70;99.90;;;;;;5072706;28;20513;-68
2023/06/28 12:34:26;;;;;;;9.20;3.00;;;20.70;99.90;;;;;;5081800;28;20776;-68
2023/06/28 12:36:56;;;;;;;5.30;3.70;;;20.70;99.90;;;;;;5080598;28;20884;-68
2023/06/28 12:39:26;;;;;;;5.93;3.70;;;20.80;99.90;;;;;;5081403;28;20986;-68
2023/06/28 12:42:04;;;;;;;7.67;3.57;;;20.80;99.90;;;;;;5074763;28;20435;-68
2023/06/28 12:44:31;;;;;;;5.50;3.47;;;20.80;99.90;;;;;;5075521;28;20466;-68
2023/06/28 12:46:57;;;;;;;5.77;3.97;;;20.90;99.90;;;;;;5084453;28;20422;-68
2023/06/28 12:49:34;;;;;;;6.10;3.47;;;20.90;99.90;;;;;;5078807;28;20506;-68
2023/06/28 12:51:59;;;;;;;5.73;3.70;;;20.90;99.90;;;;;;5079216;28;20421;-68